.
WxDataArchive / Data Records for 2015-07-19
2015-07-18 July 2015 2015-07-20

Data Records for Sunday, 19 July 2015

Time	Temp	Chill	HIndex	Humid	Dewpt	 Wind 	HiWind	WindDir	Rain 	Barom
-----	----	-----	------	-----	-----	------	------	-------	-----	-----
00:00	70.4	70.4	70.4	95	68.9	0	1	292	0.00	29.855 
00:05	70.6	70.6	70.6	95	69.1	0	1	292	0.00	29.855 
00:10	70.6	70.6	70.6	95	69.1	0	2	292	0.01	29.855 
00:15	70.6	70.6	70.6	95	69.1	0	1	292	0.00	29.855 
00:20	70.6	70.6	70.6	95	69.1	0	1	292	0.00	29.855 
00:25	70.6	70.6	70.6	95	69.1	0	0	---	0.00	29.855 
00:30	70.6	70.6	70.6	95	69.1	0	1	292	0.00	29.855 
00:35	70.6	70.6	70.6	95	69.1	0	1	292	0.00	29.855 
00:40	70.6	70.6	70.6	95	69.1	0	0	---	0.00	29.855 
00:45	70.4	70.4	70.4	95	68.9	0	1	292	0.00	29.850 
00:50	70.4	70.4	70.4	95	68.9	0	0	---	0.00	29.850 
00:55	70.4	70.4	70.4	95	68.9	0	1	292	0.00	29.850 
01:00	70.4	70.4	70.4	95	68.9	0	1	292	0.00	29.850 
01:05	70.4	70.4	70.4	95	68.9	0	0	---	0.00	29.850 
01:10	70.4	70.4	70.4	95	68.9	0	0	---	0.00	29.850 
01:15	70.4	70.4	70.4	95	68.9	0	0	---	0.00	29.852 
01:20	70.3	70.3	70.3	95	68.8	0	0	---	0.00	29.852 
01:25	70.4	70.4	70.4	95	68.9	0	0	---	0.00	29.852 
01:30	70.4	70.4	70.4	95	68.9	0	1	292	0.00	29.851 
01:35	70.4	70.4	70.4	95	68.9	0	0	---	0.00	29.851 
01:40	70.4	70.4	70.4	95	68.9	0	0	---	0.00	29.851 
01:45	70.4	70.4	70.4	95	68.9	0	0	---	0.00	29.851 
01:50	70.4	70.4	70.4	95	68.9	0	0	---	0.00	29.851 
01:55	70.4	70.4	70.4	95	68.9	0	0	---	0.00	29.851 
02:00	70.4	70.4	70.4	95	68.9	0	0	---	0.00	29.850 
02:05	70.4	70.4	70.4	95	68.9	0	0	---	0.00	29.850 
02:10	70.4	70.4	70.4	95	68.9	0	0	---	0.00	29.850 
02:15	70.6	70.6	70.6	96	69.4	0	0	---	0.00	29.853 
02:20	70.6	70.6	70.6	96	69.4	0	0	---	0.00	29.853 
02:25	70.6	70.6	70.6	96	69.4	0	0	---	0.00	29.853 
02:30	70.6	70.6	70.6	95	69.1	0	1	292	0.00	29.850 
02:35	70.6	70.6	70.6	96	69.4	0	1	292	0.00	29.850 
02:40	70.6	70.6	70.6	96	69.4	0	1	292	0.00	29.850 
02:45	70.8	70.8	70.8	96	69.6	0	0	---	0.00	29.844 
02:50	70.8	70.8	70.8	96	69.6	0	1	292	0.00	29.844 
02:55	70.8	70.8	70.8	96	69.6	0	0	---	0.00	29.844 
03:00	70.8	70.8	70.8	96	69.6	0	1	292	0.00	29.840 
03:05	70.8	70.8	70.8	96	69.6	0	0	---	0.00	29.840 
03:10	70.8	70.8	70.8	96	69.6	0	0	---	0.00	29.840 
03:15	70.8	70.8	70.8	96	69.6	0	1	292	0.00	29.834 
03:20	70.8	70.8	70.8	96	69.6	0	0	---	0.00	29.834 
03:25	70.8	70.8	70.8	96	69.6	0	0	---	0.00	29.834 
03:30	70.8	70.8	70.8	96	69.6	0	1	292	0.00	29.834 
03:35	70.8	70.8	70.8	96	69.6	0	0	---	0.00	29.834 
03:40	70.8	70.8	70.8	96	69.6	0	1	292	0.00	29.834 
03:45	70.8	70.8	70.8	96	69.6	0	1	292	0.00	29.833 
03:50	70.9	70.9	70.9	96	69.7	0	0	---	0.00	29.833 
03:55	70.9	70.9	70.9	96	69.7	0	1	292	0.00	29.833 
04:00	70.9	70.9	70.9	96	69.7	0	1	292	0.00	29.827 
04:05	70.9	70.9	70.9	96	69.7	0	0	---	0.00	29.827 
04:10	70.9	70.9	70.9	96	69.7	0	0	---	0.00	29.827 
04:15	70.9	70.9	70.9	96	69.7	0	0	---	0.00	29.823 
04:20	71.1	71.1	71.1	96	69.9	0	1	292	0.00	29.823 
04:25	71.1	71.1	71.1	96	69.9	0	1	292	0.00	29.823 
04:30	71.3	71.3	71.3	96	70.1	0	1	292	0.00	29.821 
04:35	71.5	71.5	71.5	96	70.3	0	1	292	0.00	29.821 
04:40	71.5	71.5	71.5	96	70.3	0	1	292	0.00	29.821 
04:45	71.5	71.5	71.5	96	70.3	0	1	292	0.00	29.819 
04:50	71.6	71.6	71.6	96	70.4	0	1	292	0.00	29.819 
04:55	71.6	71.6	71.6	96	70.4	0	1	292	0.00	29.819 
05:00	71.6	71.6	71.6	96	70.4	0	0	---	0.00	29.819 
05:05	71.8	71.8	71.8	96	70.6	0	0	---	0.00	29.819 
05:10	71.8	71.8	71.8	96	70.6	0	1	292	0.00	29.819 
05:15	71.6	71.6	71.6	96	70.4	0	1	292	0.00	29.821 
05:20	71.8	71.8	71.8	96	70.6	0	0	---	0.00	29.821 
05:25	71.6	71.6	71.6	96	70.4	0	0	---	0.00	29.821 
05:30	71.6	71.6	71.6	96	70.4	0	0	---	0.00	29.818 
05:35	71.6	71.6	71.6	96	70.4	0	0	---	0.00	29.818 
05:40	71.6	71.6	71.6	96	70.4	0	0	---	0.00	29.818 
05:45	71.5	71.5	71.5	96	70.3	0	0	---	0.00	29.817 
05:50	71.5	71.5	71.5	96	70.3	0	0	---	0.00	29.817 
05:55	71.5	71.5	71.5	96	70.3	0	0	---	0.01	29.817 
06:00	71.5	71.5	71.5	96	70.3	0	0	---	0.00	29.817 
06:05	71.3	71.3	71.3	96	70.1	0	0	---	0.00	29.817 
06:10	71.3	71.3	71.3	96	70.1	0	0	---	0.00	29.817 
06:15	71.3	71.3	71.3	96	70.1	0	0	---	0.00	29.816 
06:20	71.3	71.3	71.3	96	70.1	0	0	---	0.00	29.816 
06:25	71.3	71.3	71.3	96	70.1	0	0	---	0.00	29.816 
06:30	71.3	71.3	71.3	96	70.1	0	0	---	0.00	29.819 
06:35	71.1	71.1	71.1	96	69.9	0	0	---	0.00	29.819 
06:40	71.1	71.1	71.1	96	69.9	0	0	---	0.00	29.819 
06:45	71.1	71.1	71.1	96	69.9	0	0	---	0.00	29.821 
06:50	71.1	71.1	71.1	96	69.9	0	0	---	0.00	29.821 
06:55	71.3	71.3	71.3	96	70.1	0	0	---	0.00	29.821 
07:00	71.5	71.5	71.5	96	70.3	0	1	292	0.00	29.831 
07:05	71.6	71.6	71.6	96	70.4	0	0	---	0.00	29.831 
07:10	71.6	71.6	71.6	96	70.4	0	0	---	0.00	29.831 
07:15	71.8	71.8	71.8	96	70.6	0	0	---	0.00	29.835 
07:20	72.0	72.0	72.0	96	70.8	0	1	292	0.00	29.835 
07:25	72.1	72.1	72.1	96	70.9	0	1	292	0.00	29.835 
07:30	72.3	72.3	72.3	96	71.1	0	1	292	0.00	29.839 
07:35	72.5	72.5	72.5	96	71.3	0	1	292	0.00	29.839 
07:40	72.8	72.8	72.8	96	71.6	0	1	292	0.00	29.839 
07:45	73.0	73.0	73.0	96	71.8	0	1	292	0.00	29.846 
07:50	73.2	73.2	73.2	96	72.0	0	1	292	0.00	29.846 
07:55	73.5	73.5	73.5	96	72.3	0	1	292	0.00	29.846 
08:00	73.7	73.7	73.7	96	72.5	0	0	---	0.00	29.837 
08:05	73.9	73.9	73.9	96	72.7	0	1	292	0.00	29.837 
08:10	74.2	74.2	74.2	96	73.0	0	2	292	0.00	29.837 
08:15	74.4	74.4	74.4	96	73.2	0	1	292	0.00	29.837 
08:20	74.7	74.7	74.7	96	73.5	0	1	292	0.00	29.837 
08:25	75.3	75.3	73.7	96	74.1	0	1	292	0.00	29.837 
08:30	75.4	75.4	73.9	96	74.2	0	1	292	0.00	29.838 
08:35	75.8	75.8	74.8	96	74.6	0	1	292	0.00	29.838 
08:40	75.8	75.8	75.0	95	74.3	1	2	292	0.00	29.838 
08:45	75.8	75.8	75.0	95	74.3	1	2	292	0.00	29.838 
08:50	76.1	76.1	75.7	95	74.6	0	2	292	0.00	29.838 
08:55	76.3	76.3	76.2	95	74.8	0	3	292	0.00	29.838 
09:00	76.5	76.5	76.7	95	75.0	1	3	292	0.00	29.835 
09:05	76.7	76.7	77.2	95	75.2	0	1	292	0.00	29.835 
09:10	77.0	77.0	78.0	94	75.1	0	2	292	0.00	29.835 
09:15	77.2	77.2	78.5	94	75.3	0	2	292	0.00	29.837 
09:20	77.2	77.2	78.5	93	75.0	0	3	292	0.00	29.837 
09:25	77.7	77.7	79.8	93	75.5	0	1	292	0.00	29.837 
09:30	77.9	77.9	80.3	92	75.4	1	2	292	0.00	29.836 
09:35	78.1	78.1	80.8	92	75.6	0	2	292	0.00	29.836 
09:40	78.5	78.5	81.8	91	75.6	0	2	292	0.00	29.836 
09:45	78.5	78.5	81.7	89	75.0	1	2	292	0.00	29.835 
09:50	78.6	78.6	81.9	89	75.1	0	2	292	0.00	29.835 
09:55	79.0	79.0	82.8	88	75.1	0	2	202	0.00	29.835 
10:00	79.2	79.2	83.3	88	75.3	1	3	202	0.00	29.840 
10:05	79.4	79.4	83.7	87	75.2	0	2	225	0.00	29.840 
10:10	79.6	79.6	84.1	86	75.0	0	2	225	0.00	29.840 
10:15	79.9	79.9	84.7	85	75.0	0	2	225	0.00	29.836 
10:20	80.3	80.3	85.5	84	75.0	0	3	225	0.00	29.836 
10:25	80.5	80.5	86.0	84	75.2	0	2	225	0.00	29.836 
10:30	80.7	80.7	86.1	82	74.7	1	4	292	0.00	29.842 
10:35	80.9	80.9	86.6	82	74.9	1	3	292	0.00	29.842 
10:40	81.2	81.2	87.1	81	74.8	0	2	292	0.00	29.842 
10:45	81.6	81.6	87.8	80	74.8	1	4	292	0.00	29.835 
10:50	82.0	82.0	88.8	80	75.2	0	3	292	0.00	29.835 
10:55	82.4	82.4	89.5	79	75.2	1	3	292	0.00	29.835 
11:00	82.8	82.8	90.2	78	75.2	1	3	292	0.00	29.831 
11:05	83.0	83.0	90.7	78	75.4	1	3	292	0.00	29.831 
11:10	83.2	83.2	90.9	77	75.2	1	2	292	0.00	29.831 
11:15	83.4	83.4	91.4	77	75.4	0	2	292	0.00	29.832 
11:20	83.4	83.4	91.0	76	75.0	1	2	292	0.00	29.832 
11:25	83.2	83.2	90.6	76	74.8	1	4	292	0.00	29.832 
11:30	83.4	83.4	91.0	76	75.0	1	4	292	0.00	29.835 
11:35	83.6	83.6	91.5	76	75.2	1	3	292	0.00	29.835 
11:40	83.8	83.8	91.7	75	75.0	1	3	292	0.00	29.835 
11:45	84.0	84.0	92.2	75	75.2	1	3	292	0.00	29.833 
11:50	84.0	84.0	91.8	74	74.8	1	5	292	0.00	29.833 
11:55	84.0	84.0	91.8	74	74.8	2	5	292	0.00	29.833 
12:00	84.1	84.1	92.4	75	75.3	1	4	270	0.00	29.839 
12:05	84.3	84.3	92.5	74	75.1	2	4	270	0.00	29.839 
12:10	84.3	84.3	92.5	74	75.1	2	3	270	0.00	29.839 
12:15	84.3	84.3	92.5	74	75.1	1	4	270	0.00	29.844 
12:20	84.3	84.3	92.5	74	75.1	2	4	292	0.00	29.844 
12:25	84.5	84.5	92.6	73	74.9	1	4	292	0.00	29.844 
12:30	84.9	84.9	94.4	75	76.1	1	3	292	0.00	29.843 
12:35	85.1	85.1	94.1	73	75.4	1	4	292	0.00	29.843 
12:40	85.3	85.3	94.2	72	75.2	2	5	292	0.00	29.843 
12:45	85.5	85.5	94.7	72	75.4	2	5	292	0.00	29.835 
12:50	85.7	85.7	95.2	72	75.6	2	5	292	0.00	29.835 
12:55	85.5	85.5	94.3	71	75.0	2	4	292	0.00	29.835 
13:00	85.5	85.5	93.9	70	74.6	1	3	292	0.00	29.834 
13:05	85.3	85.3	93.8	71	74.8	1	3	292	0.00	29.834 
13:10	85.3	85.3	94.2	72	75.2	1	3	292	0.00	29.834 
13:15	85.5	85.5	95.1	73	75.8	0	2	292	0.00	29.831 
13:20	85.7	85.7	95.2	72	75.6	0	3	292	0.00	29.831 
13:25	85.7	85.7	94.8	71	75.2	1	3	292	0.00	29.831 
13:30	85.3	85.3	94.2	72	75.2	0	3	292	0.00	29.830 
13:35	84.9	84.9	93.2	72	74.8	0	2	292	0.00	29.830 
13:40	84.7	84.7	93.5	74	75.5	0	2	292	0.00	29.830 
13:45	84.5	84.5	93.0	74	75.3	0	1	292	0.00	29.822 
13:50	84.3	84.3	92.9	75	75.5	1	2	292	0.00	29.822 
13:55	84.1	84.1	92.8	76	75.7	1	3	315	0.00	29.822 
14:00	84.0	84.0	92.9	77	76.0	0	2	292	0.00	29.826 
14:05	83.6	83.6	91.9	77	75.6	1	3	292	0.00	29.826 
14:10	83.0	83.0	90.7	78	75.4	2	7	315	0.00	29.826 
14:15	81.4	81.4	87.4	80	74.6	2	6	270	0.03	29.833 
14:20	79.6	79.6	83.5	81	73.2	1	6	292	0.03	29.833 
14:25	77.6	77.6	79.6	83	72.0	1	2	270	0.03	29.833 
14:30	76.5	76.5	77.5	85	71.6	1	3	270	0.00	29.841 
14:35	76.1	76.1	76.6	87	71.9	0	1	270	0.00	29.841 
14:40	76.1	76.1	76.4	89	72.6	0	1	270	0.01	29.841 
14:45	76.1	76.1	76.3	90	72.9	0	1	270	0.02	29.837 
14:50	76.1	76.1	76.3	90	72.9	0	3	270	0.03	29.837 
14:55	76.0	76.0	75.9	91	73.2	0	1	270	0.04	29.837 
15:00	76.0	76.0	75.9	91	73.2	0	1	270	0.00	29.824 
15:05	76.1	76.1	76.0	92	73.6	0	0	---	0.00	29.824 
15:10	76.5	76.5	76.9	92	74.0	0	1	270	0.00	29.824 
15:15	77.0	77.0	78.0	93	74.8	0	1	270	0.00	29.815 
15:20	77.9	77.9	80.3	93	75.7	0	2	270	0.00	29.815 
15:25	78.8	78.8	82.7	93	76.6	0	2	270	0.00	29.815 
15:30	79.6	79.6	85.0	94	77.7	0	2	270	0.00	29.804 
15:35	80.3	80.3	87.0	93	78.1	0	2	270	0.00	29.804 
15:40	80.5	80.5	87.6	93	78.3	0	1	270	0.00	29.804 
15:45	80.3	80.3	86.8	92	77.8	1	3	270	0.00	29.785 
15:50	80.7	80.7	88.0	92	78.1	0	2	270	0.00	29.785 
15:55	80.9	80.9	88.6	92	78.3	0	2	270	0.00	29.785 
16:00	80.9	80.9	88.4	91	78.0	1	2	270	0.00	29.779 
16:05	81.1	81.1	88.8	90	77.9	1	3	270	0.00	29.779 
16:10	81.2	81.2	88.8	89	77.6	1	4	270	0.00	29.779 
16:15	81.6	81.6	89.8	88	77.7	1	5	270	0.00	29.770 
16:20	82.2	82.2	90.7	85	77.2	1	3	270	0.00	29.770 
16:25	82.6	82.6	90.6	81	76.2	2	5	270	0.00	29.770 
16:30	82.8	82.8	90.2	78	75.2	3	6	270	0.00	29.770 
16:35	83.4	83.4	91.7	78	75.8	1	3	270	0.00	29.770 
16:40	83.8	83.8	91.7	75	75.0	2	5	270	0.00	29.770 
16:45	84.0	84.0	91.5	73	74.4	2	5	338	0.00	29.768 
16:50	84.3	84.3	91.8	72	74.3	2	5	292	0.00	29.768 
16:55	84.5	84.5	91.2	69	73.2	3	5	292	0.00	29.768 
17:00	84.9	84.9	92.1	69	73.6	2	5	292	0.00	29.770 
17:05	84.9	84.9	91.0	66	72.2	3	6	292	0.00	29.770 
17:10	84.9	84.9	90.7	65	71.8	3	7	315	0.00	29.770 
17:15	84.7	84.7	90.0	64	71.1	4	7	315	0.00	29.771 
17:20	84.7	84.7	90.3	65	71.6	3	6	292	0.00	29.771 
17:25	84.9	84.9	91.0	66	72.2	2	6	292	0.00	29.771 
17:30	84.9	84.9	90.4	64	71.3	2	5	315	0.00	29.768 
17:35	84.5	84.5	89.9	65	71.4	2	4	315	0.00	29.768 
17:40	84.1	84.1	89.4	66	71.5	2	6	315	0.00	29.768 
17:45	83.8	83.8	88.0	63	69.8	3	6	338	0.00	29.770 
17:50	83.6	83.6	88.7	67	71.5	2	5	292	0.00	29.770 
17:55	83.6	83.6	89.0	68	71.9	1	3	292	0.00	29.770 
18:00	83.4	83.4	88.6	68	71.7	2	6	315	0.00	29.772 
18:05	83.2	83.2	88.2	68	71.5	3	6	338	0.00	29.772 
18:10	83.0	83.0	88.1	69	71.8	1	5	338	0.00	29.772 
18:15	83.0	83.0	87.9	68	71.3	2	4	338	0.00	29.779 
18:20	82.8	82.8	87.7	69	71.6	2	3	292	0.00	29.779 
18:25	82.8	82.8	87.7	69	71.6	1	4	292	0.00	29.779 
18:30	82.8	82.8	87.7	69	71.6	1	4	292	0.00	29.785 
18:35	82.8	82.8	87.7	69	71.6	1	4	292	0.00	29.785 
18:40	82.8	82.8	87.7	69	71.6	2	5	292	0.00	29.785 
18:45	82.6	82.6	87.1	68	70.9	3	5	338	0.00	29.792 
18:50	82.4	82.4	87.0	69	71.2	2	6	0	0.00	29.792 
18:55	82.2	82.2	86.6	69	71.0	2	6	0	0.00	29.792 
19:00	82.0	82.0	86.0	68	70.4	2	4	292	0.00	29.796 
19:05	82.0	82.0	86.2	69	70.8	1	4	292	0.00	29.796 
19:10	81.8	81.8	85.9	69	70.6	1	3	292	0.00	29.796 
19:15	81.8	81.8	85.9	69	70.6	1	4	292	0.00	29.797 
19:20	81.8	81.8	86.1	70	71.0	0	1	292	0.00	29.797 
19:25	82.0	82.0	86.2	69	70.8	2	4	292	0.00	29.797 
19:30	82.0	82.0	86.2	69	70.8	0	2	292	0.00	29.798 
19:35	82.0	82.0	86.2	69	70.8	0	2	292	0.00	29.798 
19:40	81.8	81.8	85.9	69	70.6	1	4	292	0.00	29.798 
19:45	81.6	81.6	85.5	69	70.4	1	3	292	0.00	29.807 
19:50	81.6	81.6	85.7	70	70.8	0	3	292	0.00	29.807 
19:55	81.4	81.4	85.3	70	70.7	1	4	292	0.00	29.807 
20:00	81.2	81.2	84.8	69	70.0	1	3	292	0.00	29.817 
20:05	81.2	81.2	85.0	70	70.5	0	1	292	0.00	29.817 
20:10	81.2	81.2	84.8	69	70.0	1	3	292	0.00	29.817 
20:15	81.1	81.1	84.3	67	69.1	0	2	292	0.00	29.812 
20:20	80.9	80.9	83.8	66	68.4	1	3	292	0.00	29.812 
20:25	80.7	80.7	83.4	65	67.8	2	3	292	0.00	29.812 
20:30	80.7	80.7	83.5	66	68.3	1	2	292	0.00	29.804 
20:35	80.7	80.7	83.5	66	68.3	0	1	292	0.00	29.804 
20:40	80.3	80.3	83.0	67	68.3	0	1	292	0.00	29.804 
20:45	80.1	80.1	82.9	68	68.6	0	1	180	0.00	29.801 
20:50	79.8	79.8	82.4	68	68.3	0	0	---	0.00	29.801 
20:55	79.6	79.6	82.2	69	68.5	0	0	---	0.00	29.801 
21:00	79.2	79.2	81.7	70	68.5	0	0	---	0.00	29.800 
21:05	78.6	78.6	80.9	71	68.4	0	0	---	0.00	29.800 
21:10	78.3	78.3	80.5	72	68.5	0	0	---	0.00	29.800 
21:15	77.9	77.9	80.0	73	68.5	0	0	---	0.00	29.798 
21:20	77.6	77.6	79.6	74	68.6	0	0	---	0.00	29.798 
21:25	77.2	77.2	79.0	74	68.3	0	0	---	0.00	29.798 
21:30	76.7	76.7	78.3	75	68.2	0	0	---	0.00	29.804 
21:35	76.3	76.3	77.6	77	68.5	0	0	---	0.00	29.804 
21:40	76.0	76.0	77.2	78	68.6	0	0	---	0.00	29.804 
21:45	75.6	75.6	76.5	79	68.6	0	0	---	0.00	29.817 
21:50	75.3	75.3	76.1	79	68.3	0	0	---	0.00	29.817 
21:55	75.1	75.1	75.7	80	68.5	0	0	---	0.00	29.817 
22:00	74.9	74.9	74.9	80	68.3	0	0	---	0.00	29.826 
22:05	74.6	74.6	74.6	81	68.4	0	0	---	0.00	29.826 
22:10	74.4	74.4	74.4	81	68.2	0	0	---	0.00	29.826 
22:15	74.2	74.2	74.2	81	68.0	0	0	---	0.00	29.831 
22:20	74.0	74.0	74.0	82	68.1	0	0	---	0.00	29.831 
22:25	73.9	73.9	73.9	83	68.4	0	0	---	0.00	29.831 
22:30	73.5	73.5	73.5	83	68.0	0	0	---	0.00	29.834 
22:35	73.3	73.3	73.3	84	68.2	0	0	---	0.00	29.834 
22:40	73.2	73.2	73.2	84	68.1	0	0	---	0.00	29.834 
22:45	73.0	73.0	73.0	84	67.9	0	0	---	0.00	29.834 
22:50	72.7	72.7	72.7	85	67.9	0	0	---	0.00	29.834 
22:55	72.7	72.7	72.7	86	68.3	0	0	---	0.00	29.834 
23:00	72.5	72.5	72.5	86	68.1	0	0	---	0.00	29.844 
23:05	72.3	72.3	72.3	87	68.2	0	0	---	0.00	29.844 
23:10	72.3	72.3	72.3	87	68.2	0	0	---	0.00	29.844 
23:15	72.1	72.1	72.1	87	68.0	0	0	---	0.00	29.842 
23:20	72.1	72.1	72.1	87	68.0	0	0	---	0.00	29.842 
23:25	72.3	72.3	72.3	88	68.5	0	0	---	0.00	29.842 
23:30	72.5	72.5	72.5	87	68.4	0	0	---	0.00	29.842 
23:35	72.7	72.7	72.7	86	68.3	0	1	248	0.00	29.842 
23:40	72.7	72.7	72.7	86	68.3	0	0	---	0.00	29.842 
23:45	72.7	72.7	72.7	86	68.3	0	0	---	0.00	29.841 
23:50	72.7	72.7	72.7	86	68.3	0	0	---	0.00	29.841 
23:55	72.5	72.5	72.5	85	67.7	0	1	248	0.00	29.841 

CoCoRaHS
IN-AL-39
A2 Web Hosting
Creative Commons License
GoDaddy
search engine by freefind advanced

loaded 2018-11-14 04:13:45 • last modified 2010-11-18 10:43:29
Privacy PolicyDisclaimer
• wx.awcolley.com is powered by PmWiki v.2002016 •
• all content (unless otherwise noted) © 2018 A W Colley